createdAt,value
2018-06-20T00:00:03.916Z,25.7
2018-06-20T00:00:54.289Z,25.6
2018-06-20T00:01:44.388Z,25.6
2018-06-20T00:02:34.149Z,25.6
2018-06-20T00:03:24.468Z,25.6
2018-06-20T00:04:13.689Z,25.6
2018-06-20T00:05:03.834Z,25.6
2018-06-20T00:05:54.120Z,25.6
2018-06-20T00:06:44.560Z,25.6
2018-06-20T00:07:34.567Z,25.6
2018-06-20T00:08:24.307Z,25.6
2018-06-20T00:09:14.393Z,25.6
2018-06-20T00:10:19.359Z,25.6
2018-06-20T00:10:55.118Z,25.6
2018-06-20T00:11:44.842Z,25.6
2018-06-20T00:12:34.920Z,25.6
2018-06-20T00:13:25.275Z,25.6
2018-06-20T00:14:14.777Z,25.6
2018-06-20T00:15:04.890Z,25.6
2018-06-20T00:15:55.422Z,25.6
2018-06-20T00:16:44.968Z,25.6
2018-06-20T00:17:35.338Z,25.6
2018-06-20T00:18:25.364Z,25.6
2018-06-20T00:19:15.138Z,25.6
2018-06-20T00:20:05.229Z,25.6
2018-06-20T00:20:55.560Z,25.6
2018-06-20T00:21:44.560Z,25.6
2018-06-20T00:22:35.652Z,25.6
2018-06-20T00:23:25.735Z,25.6
2018-06-20T00:24:15.792Z,25.6
2018-06-20T00:25:05.726Z,25.6
2018-06-20T00:25:55.947Z,25.6
2018-06-20T00:26:46.269Z,25.6
2018-06-20T00:27:35.218Z,25.6
2018-06-20T00:28:25.275Z,25.6
2018-06-20T00:29:16.495Z,25.6
2018-06-20T00:30:06.577Z,25.6
2018-06-20T00:30:56.037Z,25.6
2018-06-20T00:31:45.819Z,25.6
2018-06-20T00:32:35.401Z,25.6
2018-06-20T00:33:26.792Z,25.6
2018-06-20T00:34:16.586Z,25.6
2018-06-20T00:35:06.394Z,25.6
2018-06-20T00:35:56.738Z,25.6
2018-06-20T00:36:47.044Z,25.6
2018-06-20T00:37:36.838Z,25.6
2018-06-20T00:38:26.893Z,25.6
2018-06-20T00:39:17.270Z,25.6
2018-06-20T00:40:07.085Z,25.6
2018-06-20T00:40:57.028Z,25.6
2018-06-20T00:41:47.126Z,25.6
2018-06-20T00:42:37.203Z,25.6
2018-06-20T00:43:27.574Z,25.6
2018-06-20T00:44:17.362Z,25.6
2018-06-20T00:45:07.448Z,25.6
2018-06-20T00:45:57.461Z,25.6
2018-06-20T00:46:47.514Z,25.6
2018-06-20T00:47:37.876Z,25.5
2018-06-20T00:48:27.388Z,25.5
2018-06-20T00:49:17.705Z,25.5
2018-06-20T00:50:07.870Z,25.6
2018-06-20T00:50:57.563Z,25.5
2018-06-20T00:51:47.966Z,25.5
2018-06-20T00:52:37.753Z,25.5
2018-06-20T00:53:27.756Z,25.5
2018-06-20T00:54:17.566Z,25.5
2018-06-20T00:55:07.625Z,25.5
2018-06-20T00:55:58.222Z,25.5
2018-06-20T00:56:47.712Z,25.5
2018-06-20T00:57:38.056Z,25.5
2018-06-20T00:58:28.398Z,25.5
2018-06-20T00:59:18.467Z,25.5
2018-06-20T01:00:08.546Z,25.5
2018-06-20T01:00:58.582Z,25.5
2018-06-20T01:01:48.163Z,25.5
2018-06-20T01:02:38.714Z,25.5
2018-06-20T01:03:28.793Z,25.5
2018-06-20T01:04:19.133Z,25.5
2018-06-20T01:05:08.337Z,25.5
2018-06-20T01:05:59.240Z,25.4
2018-06-20T01:06:48.575Z,25.5
2018-06-20T01:07:39.200Z,25.5
2018-06-20T01:08:29.153Z,25.5
2018-06-20T01:09:19.506Z,25.5
2018-06-20T01:10:08.999Z,25.5
2018-06-20T01:10:59.103Z,25.4
2018-06-20T01:11:51.987Z,25.4
2018-06-20T01:12:39.484Z,25.5
2018-06-20T01:13:29.286Z,25.4
2018-06-20T01:14:19.611Z,25.5
2018-06-20T01:15:09.392Z,25.4
2018-06-20T01:16:00.043Z,25.5
2018-06-20T01:16:49.540Z,25.4
2018-06-20T01:17:40.127Z,25.4
2018-06-20T01:18:44.840Z,25.5
2018-06-20T01:19:19.988Z,25.5
2018-06-20T01:20:09.775Z,25.4
2018-06-20T01:21:00.350Z,25.4
2018-06-20T01:21:50.452Z,25.4
2018-06-20T01:22:40.575Z,25.4
2018-06-20T01:23:30.336Z,25.4
2018-06-20T01:24:20.638Z,25.4
2018-06-20T01:25:10.721Z,25.5
2018-06-20T01:26:00.781Z,25.4
2018-06-20T01:26:50.853Z,25.4
2018-06-20T01:27:40.054Z,25.4
2018-06-20T01:28:30.411Z,25.4
2018-06-20T01:29:19.911Z,25.4
2018-06-20T01:30:10.838Z,25.4
2018-06-20T01:31:00.328Z,25.4
2018-06-20T01:31:51.259Z,25.4
2018-06-20T01:32:41.311Z,25.4
2018-06-20T01:33:31.091Z,25.4
2018-06-20T01:34:21.461Z,25.4
2018-06-20T01:35:10.945Z,25.4
2018-06-20T01:36:01.567Z,25.4
2018-06-20T01:36:51.385Z,25.4
2018-06-20T01:37:41.141Z,25.4
2018-06-20T01:38:31.291Z,25.4
2018-06-20T01:39:21.219Z,25.4
2018-06-20T01:40:11.296Z,25.4
2018-06-20T01:41:01.678Z,25.4
2018-06-20T01:41:52.066Z,25.4
2018-06-20T01:42:41.566Z,25.4
2018-06-20T01:43:31.875Z,25.4
2018-06-20T01:44:21.905Z,25.4
2018-06-20T01:45:12.239Z,25.4
2018-06-20T01:46:02.358Z,25.4
2018-06-20T01:46:51.843Z,25.4
2018-06-20T01:47:41.855Z,25.4
2018-06-20T01:48:32.020Z,25.4
2018-06-20T01:49:22.581Z,25.4
2018-06-20T01:50:12.117Z,25.4
2018-06-20T01:51:02.146Z,25.4
2018-06-20T01:51:52.202Z,25.4
2018-06-20T01:52:42.320Z,25.4
2018-06-20T01:53:32.663Z,25.4
2018-06-20T01:54:22.645Z,25.4
2018-06-20T01:55:12.190Z,25.4
2018-06-20T01:56:03.180Z,25.4
2018-06-20T01:56:52.878Z,25.4
2018-06-20T01:57:42.737Z,25.4
2018-06-20T01:58:33.262Z,25.4
2018-06-20T01:59:21.655Z,25.4
2018-06-20T02:00:12.858Z,25.4
2018-06-20T02:01:03.469Z,25.4
2018-06-20T02:01:53.497Z,25.4
2018-06-20T02:02:43.033Z,25.4
2018-06-20T02:03:33.372Z,25.4
2018-06-20T02:04:22.907Z,25.4
2018-06-20T02:05:12.375Z,25.4
2018-06-20T02:06:03.327Z,25.4
2018-06-20T02:06:53.090Z,25.4
2018-06-20T02:07:43.983Z,25.4
2018-06-20T02:08:33.760Z,25.4
2018-06-20T02:09:23.867Z,25.4
2018-06-20T02:10:13.690Z,25.4
2018-06-20T02:11:03.381Z,25.4
2018-06-20T02:11:53.769Z,25.4
2018-06-20T02:12:44.116Z,25.4
2018-06-20T02:13:33.549Z,25.4
2018-06-20T02:14:23.618Z,25.4
2018-06-20T02:15:14.276Z,25.4
2018-06-20T02:16:04.593Z,25.4
2018-06-20T02:16:54.388Z,25.4
2018-06-20T02:17:44.453Z,25.4
2018-06-20T02:18:34.835Z,25.4
2018-06-20T02:19:24.623Z,25.4
2018-06-20T02:20:14.706Z,25.4
2018-06-20T02:21:05.010Z,25.4
2018-06-20T02:21:54.831Z,25.4
2018-06-20T02:22:44.859Z,25.4
2018-06-20T02:23:35.173Z,25.4
2018-06-20T02:24:24.699Z,25.4
2018-06-20T02:25:15.274Z,25.4
2018-06-20T02:26:04.546Z,25.4
2018-06-20T02:26:55.420Z,25.4
2018-06-20T02:27:45.232Z,25.4
2018-06-20T02:28:35.522Z,25.4
2018-06-20T02:29:25.305Z,25.4
2018-06-20T02:30:15.150Z,25.4
2018-06-20T02:31:04.947Z,25.4
2018-06-20T02:31:55.531Z,25.4
2018-06-20T02:32:45.593Z,25.4
2018-06-20T02:33:35.671Z,25.4
2018-06-20T02:34:25.428Z,25.4
2018-06-20T02:35:15.567Z,25.4
2018-06-20T02:36:05.295Z,25.4
2018-06-20T02:36:55.378Z,25.3
2018-06-20T02:37:45.428Z,25.3
2018-06-20T02:38:36.297Z,25.4
2018-06-20T02:39:26.195Z,25.4
2018-06-20T02:40:15.908Z,25.3
2018-06-20T02:41:06.236Z,25.4
2018-06-20T02:41:56.376Z,25.4
2018-06-20T02:42:46.403Z,25.3
2018-06-20T02:43:35.876Z,25.3
2018-06-20T02:44:25.987Z,25.3
2018-06-20T02:45:16.600Z,25.4
2018-06-20T02:46:06.642Z,25.4
2018-06-20T02:46:57.020Z,25.4
2018-06-20T02:47:47.106Z,25.3
2018-06-20T02:48:36.822Z,25.4
2018-06-20T02:49:26.405Z,25.3
2018-06-20T02:50:16.944Z,25.4
2018-06-20T02:51:06.277Z,25.3
2018-06-20T02:51:56.568Z,25.4
2018-06-20T02:52:47.403Z,25.3
2018-06-20T02:53:37.012Z,25.3
2018-06-20T02:54:27.035Z,25.4
2018-06-20T02:55:16.883Z,25.4
2018-06-20T02:56:06.831Z,25.4
2018-06-20T02:56:57.124Z,25.3
2018-06-20T02:57:46.950Z,25.3
2018-06-20T02:58:37.273Z,25.3
2018-06-20T02:59:27.344Z,25.3
2018-06-20T03:00:17.446Z,25.3
2018-06-20T03:01:08.135Z,25.3
2018-06-20T03:01:57.804Z,25.3
2018-06-20T03:02:47.863Z,25.3
2018-06-20T03:03:38.226Z,25.3
2018-06-20T03:04:27.168Z,25.3
2018-06-20T03:05:17.533Z,25.3
2018-06-20T03:06:08.216Z,25.3
2018-06-20T03:06:58.203Z,25.3
2018-06-20T03:07:48.272Z,25.3
2018-06-20T03:08:38.043Z,25.3
2018-06-20T03:09:27.893Z,25.3
2018-06-20T03:10:18.820Z,25.3
2018-06-20T03:11:08.825Z,25.3
2018-06-20T03:11:58.028Z,25.3
2018-06-20T03:12:48.700Z,25.3
2018-06-20T03:13:38.710Z,25.3
2018-06-20T03:14:28.194Z,25.3
2018-06-20T03:15:18.856Z,25.3
2018-06-20T03:16:08.097Z,25.3
2018-06-20T03:16:58.674Z,25.3
2018-06-20T03:17:48.470Z,25.3
2018-06-20T03:18:38.857Z,25.3
2018-06-20T03:19:28.886Z,25.3
2018-06-20T03:20:19.455Z,25.3
2018-06-20T03:21:09.604Z,25.3
2018-06-20T03:21:59.082Z,25.3
2018-06-20T03:22:49.662Z,25.3
2018-06-20T03:23:39.475Z,25.3
2018-06-20T03:24:29.839Z,25.3
2018-06-20T03:25:19.161Z,25.3
2018-06-20T03:26:09.947Z,25.3
2018-06-20T03:26:59.142Z,25.3
2018-06-20T03:27:48.937Z,25.3
2018-06-20T03:28:39.587Z,25.3
2018-06-20T03:29:29.682Z,25.3
2018-06-20T03:30:18.665Z,25.3
2018-06-20T03:31:09.608Z,25.2
2018-06-20T03:31:59.439Z,25.3
2018-06-20T03:32:48.856Z,25.3
2018-06-20T03:33:39.988Z,25.3
2018-06-20T03:34:29.552Z,25.2
2018-06-20T03:35:19.374Z,25.2
2018-06-20T03:36:10.212Z,25.3
2018-06-20T03:36:59.950Z,25.3
2018-06-20T03:37:50.561Z,25.3
2018-06-20T03:38:40.894Z,25.2
2018-06-20T03:39:29.854Z,25.3
2018-06-20T03:40:20.441Z,25.3
2018-06-20T03:41:10.564Z,25.3
2018-06-20T03:42:00.861Z,25.3
2018-06-20T03:42:50.986Z,25.2
2018-06-20T03:43:41.003Z,25.2
2018-06-20T03:44:30.228Z,25.2
2018-06-20T03:45:20.561Z,25.3
2018-06-20T03:46:10.071Z,25.3
2018-06-20T03:47:00.981Z,25.3
2018-06-20T03:47:50.746Z,25.3
2018-06-20T03:48:41.101Z,25.3
2018-06-20T03:49:31.386Z,25.3
2018-06-20T03:50:21.189Z,25.3
2018-06-20T03:51:11.282Z,25.3
2018-06-20T03:52:01.356Z,25.3
2018-06-20T03:52:51.971Z,25.4
2018-06-20T03:53:41.484Z,25.3
2018-06-20T03:54:31.834Z,25.3
2018-06-20T03:55:21.573Z,25.3
2018-06-20T03:56:12.270Z,25.4
2018-06-20T03:57:02.038Z,25.4
2018-06-20T03:57:52.123Z,25.4
2018-06-20T03:58:41.576Z,25.4
2018-06-20T03:59:32.173Z,25.4
2018-06-20T04:00:21.997Z,25.4
2018-06-20T04:01:11.793Z,25.4
2018-06-20T04:02:02.127Z,25.4
2018-06-20T04:02:52.167Z,25.4
2018-06-20T04:03:41.988Z,25.4
2018-06-20T04:04:32.622Z,25.4
2018-06-20T04:05:22.629Z,25.4
2018-06-20T04:06:13.067Z,25.4
2018-06-20T04:07:02.760Z,25.4
2018-06-20T04:07:52.852Z,25.4
2018-06-20T04:08:42.372Z,25.4
2018-06-20T04:09:33.269Z,25.4
2018-06-20T04:10:22.498Z,25.4
2018-06-20T04:11:13.144Z,25.4
2018-06-20T04:12:03.129Z,25.4
2018-06-20T04:12:54.136Z,25.4
2018-06-20T04:13:43.252Z,25.4
2018-06-20T04:14:32.506Z,25.4
2018-06-20T04:15:23.430Z,25.4
2018-06-20T04:16:12.337Z,25.4
2018-06-20T04:17:02.988Z,25.4
2018-06-20T04:17:52.748Z,25.4
2018-06-20T04:18:43.680Z,25.4
2018-06-20T04:19:33.678Z,25.4
2018-06-20T04:20:23.764Z,25.4
2018-06-20T04:21:14.129Z,25.4
2018-06-20T04:22:03.907Z,25.4
2018-06-20T04:22:54.278Z,25.4
2018-06-20T04:23:44.330Z,25.4
2018-06-20T04:24:34.081Z,25.4
2018-06-20T04:25:23.583Z,25.4
2018-06-20T04:26:14.293Z,25.4
2018-06-20T04:27:04.019Z,25.4
2018-06-20T04:27:54.350Z,25.5
2018-06-20T04:28:44.137Z,25.5
2018-06-20T04:29:34.458Z,25.6
2018-06-20T04:30:24.569Z,25.5
2018-06-20T04:31:14.629Z,25.5
2018-06-20T04:32:04.970Z,25.5
2018-06-20T04:32:54.994Z,25.6
2018-06-20T04:33:45.076Z,25.6
2018-06-20T04:34:35.365Z,25.6
2018-06-20T04:35:23.713Z,25.6
2018-06-20T04:36:14.710Z,25.6
2018-06-20T04:37:04.464Z,25.6
2018-06-20T04:37:55.339Z,25.5
2018-06-20T04:38:44.916Z,25.5
2018-06-20T04:39:34.957Z,25.5
2018-06-20T04:40:25.296Z,25.5
2018-06-20T04:41:15.599Z,25.6
2018-06-20T04:42:05.127Z,25.5
2018-06-20T04:42:55.464Z,25.5
2018-06-20T04:43:45.789Z,25.5
2018-06-20T04:44:35.298Z,25.5
2018-06-20T04:45:25.692Z,25.5
2018-06-20T04:46:15.736Z,25.5
2018-06-20T04:47:05.251Z,25.5
2018-06-20T04:47:55.909Z,25.4
2018-06-20T04:48:46.008Z,25.4
2018-06-20T04:49:35.732Z,25.5
2018-06-20T04:50:25.542Z,25.5
2018-06-20T04:51:15.877Z,25.5
2018-06-20T04:52:05.667Z,25.5
2018-06-20T04:52:54.861Z,25.5
2018-06-20T04:53:45.481Z,25.4
2018-06-20T04:54:36.114Z,25.5
2018-06-20T04:55:26.175Z,25.4
2018-06-20T04:56:16.254Z,25.4
2018-06-20T04:57:06.867Z,25.4
2018-06-20T04:57:56.396Z,25.4
2018-06-20T04:58:45.951Z,25.4
2018-06-20T04:59:36.765Z,25.4
2018-06-20T05:00:27.118Z,25.4
2018-06-20T05:01:17.173Z,25.4
2018-06-20T05:02:06.684Z,25.4
2018-06-20T05:02:56.718Z,25.4
2018-06-20T05:03:46.376Z,25.4
2018-06-20T05:04:36.929Z,25.4
2018-06-20T05:05:27.006Z,25.4
2018-06-20T05:06:16.759Z,25.4
2018-06-20T05:07:07.152Z,25.4
2018-06-20T05:07:57.447Z,25.4
2018-06-20T05:08:47.216Z,25.4
2018-06-20T05:09:37.003Z,25.4
2018-06-20T05:10:27.325Z,25.4
2018-06-20T05:11:17.640Z,25.4
2018-06-20T05:12:07.476Z,25.4
2018-06-20T05:12:57.239Z,25.4
2018-06-20T05:13:48.165Z,25.4
2018-06-20T05:14:37.117Z,25.4
2018-06-20T05:15:27.684Z,25.4
2018-06-20T05:16:18.018Z,25.4
2018-06-20T05:17:08.088Z,25.4
2018-06-20T05:17:58.173Z,25.4
2018-06-20T05:18:48.263Z,25.3
2018-06-20T05:19:38.287Z,25.4
2018-06-20T05:20:28.108Z,25.3
2018-06-20T05:21:18.713Z,25.4
2018-06-20T05:22:08.186Z,25.4
2018-06-20T05:22:58.010Z,25.4
2018-06-20T05:23:48.385Z,25.4
2018-06-20T05:24:38.171Z,25.4
2018-06-20T05:25:28.750Z,25.4
2018-06-20T05:26:18.658Z,25.3
2018-06-20T05:27:08.386Z,25.3
2018-06-20T05:27:58.756Z,25.3
2018-06-20T05:28:48.735Z,25.4
2018-06-20T05:29:39.089Z,25.4
2018-06-20T05:30:29.379Z,25.3
2018-06-20T05:31:18.937Z,25.3
2018-06-20T05:32:09.266Z,25.3
2018-06-20T05:33:00.021Z,25.4
2018-06-20T05:33:49.654Z,25.4
2018-06-20T05:34:39.722Z,25.3
2018-06-20T05:35:29.497Z,25.3
2018-06-20T05:36:19.586Z,25.3
2018-06-20T05:37:09.606Z,25.3
2018-06-20T05:37:59.420Z,25.3
2018-06-20T05:38:49.783Z,25.3
2018-06-20T05:39:39.849Z,28.6
2018-06-20T05:40:29.612Z,29.8
2018-06-20T05:41:19.950Z,31.8
2018-06-20T05:42:10.301Z,33.3
2018-06-20T05:43:00.374Z,33.9
2018-06-20T05:43:50.134Z,33.6
2018-06-20T05:44:40.554Z,32.5
2018-06-20T05:45:29.719Z,31.8
2018-06-20T05:46:19.207Z,31.4
2018-06-20T05:47:10.215Z,31.3
2018-06-20T05:47:59.914Z,31.1
2018-06-20T05:48:50.539Z,31.1
2018-06-20T05:49:40.014Z,30.9
2018-06-20T05:50:30.370Z,30.9
2018-06-20T05:51:21.034Z,30.8
2018-06-20T05:52:10.539Z,30.8
2018-06-20T05:53:00.574Z,30.6
2018-06-20T05:53:51.431Z,30.5
2018-06-20T05:54:40.973Z,30.4
2018-06-20T05:55:31.308Z,30.4
2018-06-20T05:56:21.103Z,30.3
2018-06-20T05:57:11.195Z,30.2
2018-06-20T05:58:01.540Z,30.1
2018-06-20T05:58:51.411Z,30
2018-06-20T05:59:41.070Z,29.9
2018-06-20T06:00:31.684Z,29.9
2018-06-20T06:01:21.494Z,29.8
2018-06-20T06:02:11.267Z,30.4
2018-06-20T06:03:01.621Z,32.2
2018-06-20T06:03:50.825Z,33.1
2018-06-20T06:04:42.021Z,34.2
2018-06-20T06:05:31.549Z,34.7
2018-06-20T06:06:21.884Z,34.8
2018-06-20T06:07:11.675Z,34.8
2018-06-20T06:08:01.702Z,34.7
2018-06-20T06:08:51.493Z,34.8
2018-06-20T06:09:41.294Z,34.9
2018-06-20T06:11:21.549Z,35
2018-06-20T06:12:11.835Z,35.1
2018-06-20T06:13:01.642Z,35.3
2018-06-20T06:13:51.931Z,35.4
2018-06-20T06:14:41.784Z,35.6
2018-06-20T06:15:31.241Z,35.7
2018-06-20T06:16:21.889Z,35.8
2018-06-20T06:17:12.810Z,35.8
2018-06-20T06:18:01.711Z,35.9
2018-06-20T06:18:52.344Z,35.9
2018-06-20T06:19:42.411Z,36.1
2018-06-20T06:20:32.418Z,36.3
2018-06-20T06:21:22.504Z,36.4
2018-06-20T06:22:12.308Z,36.4
2018-06-20T06:23:01.791Z,36.3
2018-06-20T06:23:51.894Z,36.3
2018-06-20T06:24:42.768Z,36.4
2018-06-20T06:25:32.888Z,36.5
2018-06-20T06:26:22.913Z,36.6
2018-06-20T06:27:12.399Z,36.7
2018-06-20T06:28:02.740Z,36.8
2018-06-20T06:28:52.863Z,36.8
2018-06-20T06:29:43.143Z,36.8
2018-06-20T06:30:33.125Z,36.8
2018-06-20T06:31:23.040Z,36.9
2018-06-20T06:32:13.069Z,36.9
2018-06-20T06:33:02.869Z,37
2018-06-20T06:33:53.194Z,37.1
2018-06-20T06:34:43.258Z,37.1
2018-06-20T06:35:33.331Z,37.1
2018-06-20T06:36:23.161Z,37.1
2018-06-20T06:37:13.160Z,37.1
2018-06-20T06:38:03.563Z,37.1
2018-06-20T06:38:53.588Z,37.1
2018-06-20T06:39:44.028Z,37.1
2018-06-20T06:40:33.730Z,37.1
2018-06-20T06:41:23.804Z,37.1
2018-06-20T06:42:13.873Z,37.1
2018-06-20T06:43:04.157Z,37.2
2018-06-20T06:43:53.550Z,37.3
2018-06-20T06:44:44.084Z,37.4
2018-06-20T06:45:34.390Z,37.4
2018-06-20T06:46:24.233Z,37.5
2018-06-20T06:47:13.947Z,37.6
2018-06-20T06:48:04.324Z,37.6
2018-06-20T06:48:54.634Z,37.7
2018-06-20T06:49:45.765Z,37.8
2018-06-20T06:50:34.196Z,37.9
2018-06-20T06:51:24.236Z,37.9
2018-06-20T06:52:14.868Z,37.9
2018-06-20T06:53:04.931Z,38.1
2018-06-20T06:53:54.994Z,38.3
2018-06-20T06:54:44.235Z,38.6
2018-06-20T06:55:35.146Z,38.8
2018-06-20T06:56:24.988Z,39
2018-06-20T06:57:15.260Z,39.1
2018-06-20T06:58:05.144Z,39.2
2018-06-20T06:58:55.390Z,39.4
2018-06-20T06:59:44.979Z,39.5
2018-06-20T07:00:35.269Z,39.6
2018-06-20T07:01:25.307Z,39.5
2018-06-20T07:02:15.647Z,39.6
2018-06-20T07:03:05.495Z,39.8
2018-06-20T07:03:55.881Z,40
2018-06-20T07:04:45.321Z,40.1
2018-06-20T07:05:34.943Z,40.3
2018-06-20T07:06:25.245Z,40.4
2018-06-20T07:07:15.267Z,40.5
2018-06-20T07:08:05.066Z,40.6
2018-06-20T07:08:54.826Z,40.8
2018-06-20T07:09:45.486Z,40.9
2018-06-20T07:10:35.634Z,41.1
2018-06-20T07:11:25.345Z,41.2
2018-06-20T07:12:15.722Z,41.3
2018-06-20T07:13:05.433Z,41.4
2018-06-20T07:13:55.520Z,41.6
2018-06-20T07:14:45.034Z,41.7
2018-06-20T07:15:37.137Z,41.8
2018-06-20T07:16:26.318Z,41.9
2018-06-20T07:17:16.258Z,42.1
2018-06-20T07:18:06.625Z,42.2
2018-06-20T07:18:56.668Z,42.3
2018-06-20T07:19:46.568Z,42.4
2018-06-20T07:20:36.375Z,42.6
2018-06-20T07:21:27.186Z,42.6
2018-06-20T07:22:16.945Z,42.8
2018-06-20T07:23:07.039Z,42.9
2018-06-20T07:23:57.067Z,43
2018-06-20T07:24:47.160Z,43.2
2018-06-20T07:25:37.559Z,43.3
2018-06-20T07:26:26.990Z,43.4
2018-06-20T07:27:16.786Z,43.5
2018-06-20T07:28:07.095Z,43.6
2018-06-20T07:28:57.497Z,43.8
2018-06-20T07:29:47.325Z,43.9
2018-06-20T07:30:37.036Z,44
2018-06-20T07:31:26.602Z,44.2
2018-06-20T07:32:17.717Z,44.3
2018-06-20T07:33:08.117Z,44.4
2018-06-20T07:33:57.860Z,44.6
2018-06-20T07:34:47.102Z,44.7
2018-06-20T07:35:40.464Z,44.8
2018-06-20T07:36:28.506Z,44.9
2018-06-20T07:37:17.316Z,45.1
2018-06-20T07:38:08.446Z,45.2
2018-06-20T07:38:58.526Z,45.3
2018-06-20T07:39:48.099Z,45.4
2018-06-20T07:40:37.796Z,45.6
2018-06-20T07:41:28.382Z,45.7
2018-06-20T07:42:18.454Z,45.8
2018-06-20T07:43:08.528Z,45.9
2018-06-20T07:43:58.372Z,46.1
2018-06-20T07:44:48.101Z,46.2
2018-06-20T07:45:38.421Z,46.3
2018-06-20T07:46:29.043Z,46.4
2018-06-20T07:47:19.108Z,46.6
2018-06-20T07:48:08.640Z,46.7
2018-06-20T07:48:58.677Z,46.8
2018-06-20T07:49:49.290Z,46.9
2018-06-20T07:50:39.119Z,47.1
2018-06-20T07:51:28.359Z,47.2
2018-06-20T07:52:18.799Z,47.3
2018-06-20T07:53:09.014Z,47.4
2018-06-20T07:53:59.674Z,47.6
2018-06-20T07:54:49.186Z,47.8
2018-06-20T07:55:39.790Z,47.9
2018-06-20T07:56:29.544Z,47.9
2018-06-20T07:57:19.089Z,48.1
2018-06-20T07:58:09.983Z,48.3
2018-06-20T07:58:59.201Z,48.4
2018-06-20T07:59:49.792Z,48.5
2018-06-20T08:00:40.679Z,48.6
2018-06-20T08:01:29.706Z,48.8
2018-06-20T08:02:20.321Z,48.8
2018-06-20T08:03:10.251Z,48.9
2018-06-20T08:04:00.417Z,49.1
2018-06-20T08:04:50.566Z,49.2
2018-06-20T08:05:40.557Z,49.3
2018-06-20T08:06:31.169Z,49.4
2018-06-20T08:07:19.576Z,49.5
2018-06-20T08:08:10.806Z,49.6
2018-06-20T08:09:00.248Z,49.8
2018-06-20T08:09:50.680Z,49.9
2018-06-20T08:10:40.124Z,49.9
2018-06-20T08:11:30.248Z,50.1
2018-06-20T08:12:20.997Z,50.1
2018-06-20T08:13:10.579Z,50.3
2018-06-20T08:14:00.956Z,50.4
2018-06-20T08:14:50.018Z,50.4
2018-06-20T08:15:40.767Z,50.6
2018-06-20T08:16:31.360Z,50.7
2018-06-20T08:17:21.247Z,50.8
2018-06-20T08:18:10.679Z,50.9
2018-06-20T08:19:00.811Z,51
2018-06-20T08:19:51.383Z,51.1
2018-06-20T08:20:41.177Z,51.1
2018-06-20T08:21:30.759Z,51.2
2018-06-20T08:22:20.888Z,51.3
2018-06-20T08:23:11.877Z,51.4
2018-06-20T08:24:01.961Z,51.5
2018-06-20T08:24:51.442Z,51.6
2018-06-20T08:25:42.444Z,51.7
2018-06-20T08:26:32.124Z,51.7
2018-06-20T08:27:21.906Z,51.8
2018-06-20T08:29:02.062Z,52
2018-06-20T08:29:52.396Z,52.1
2018-06-20T08:30:41.870Z,52.1
2018-06-20T08:31:31.964Z,52.2
2018-06-20T08:32:22.655Z,52.3
2018-06-20T08:33:12.371Z,52.3
2018-06-20T08:34:51.991Z,52.4
2018-06-20T08:35:42.827Z,52.5
2018-06-20T08:36:32.365Z,52.6
2018-06-20T08:37:22.403Z,52.6
2018-06-20T08:38:12.756Z,52.8
2018-06-20T08:39:03.155Z,52.8
2018-06-20T08:39:53.171Z,52.9
2018-06-20T08:40:42.698Z,53
2018-06-20T08:41:33.300Z,53.1
2018-06-20T08:42:24.006Z,53.1
2018-06-20T08:43:13.448Z,53.2
2018-06-20T08:44:02.940Z,53.3
2018-06-20T08:44:52.473Z,53.3
2018-06-20T08:45:43.335Z,53.4
2018-06-20T08:46:33.413Z,53.4
2018-06-20T08:47:23.185Z,53.6
2018-06-20T08:48:13.568Z,53.6
2018-06-20T08:49:03.338Z,53.7
2018-06-20T08:49:53.991Z,53.8
2018-06-20T08:50:43.745Z,53.8
2018-06-20T08:51:34.107Z,53.9
2018-06-20T08:52:24.185Z,54
2018-06-20T08:53:14.239Z,54.1
2018-06-20T08:54:04.008Z,54.1
2018-06-20T08:54:54.085Z,54.2
2018-06-20T08:55:44.495Z,54.3
2018-06-20T08:56:34.242Z,54.3
2018-06-20T08:57:24.291Z,54.4
2018-06-20T08:58:14.072Z,54.4
2018-06-20T08:59:04.094Z,54.5
2018-06-20T08:59:53.995Z,54.6
2018-06-20T09:00:44.762Z,54.7
2018-06-20T09:01:34.606Z,54.8
2018-06-20T09:02:24.923Z,54.8
2018-06-20T09:03:14.676Z,54.9
2018-06-20T09:04:04.833Z,54.9
2018-06-20T09:04:54.343Z,54.9
2018-06-20T09:05:44.878Z,55
2018-06-20T09:06:35.233Z,55.1
2018-06-20T09:07:25.035Z,55.1
2018-06-20T09:08:15.065Z,55.2
2018-06-20T09:09:05.223Z,55.3
2018-06-20T09:09:55.238Z,55.3
2018-06-20T09:10:45.290Z,55.4
2018-06-20T09:11:35.622Z,55.4
2018-06-20T09:12:25.103Z,55.6
2018-06-20T09:13:15.789Z,55.6
2018-06-20T09:14:05.543Z,55.7
2018-06-20T09:14:55.861Z,55.7
2018-06-20T09:15:45.668Z,55.5
2018-06-20T09:16:35.749Z,55.4
2018-06-20T09:17:25.581Z,55.3
2018-06-20T09:18:15.676Z,55.3
2018-06-20T09:19:05.978Z,55.4
2018-06-20T09:19:55.301Z,55.6
2018-06-20T09:20:46.139Z,55.8
2018-06-20T09:21:35.883Z,55.9
2018-06-20T09:22:25.651Z,56.1
2018-06-20T09:23:16.543Z,56.1
2018-06-20T09:24:05.834Z,56.2
2018-06-20T09:24:56.406Z,56.3
2018-06-20T09:25:46.415Z,56.2
2018-06-20T09:26:36.555Z,56.1
2018-06-20T09:27:25.544Z,56.1
2018-06-20T09:28:16.200Z,56.1
2018-06-20T09:29:06.448Z,56
2018-06-20T09:29:57.030Z,56
2018-06-20T09:30:46.849Z,56.1
2018-06-20T09:31:36.360Z,56.2
2018-06-20T09:32:26.493Z,56.3
2018-06-20T09:33:16.759Z,56.4
2018-06-20T09:34:06.811Z,56.6
2018-06-20T09:34:56.871Z,56.7
2018-06-20T09:35:46.975Z,56.8
2018-06-20T09:36:37.326Z,56.9
2018-06-20T09:37:27.674Z,57
2018-06-20T09:38:17.697Z,57.1
2018-06-20T09:39:07.032Z,57.1
2018-06-20T09:39:57.284Z,57.3
2018-06-20T09:40:47.382Z,57.4
2018-06-20T09:41:37.771Z,57.4
2018-06-20T09:42:28.100Z,57.5
2018-06-20T09:43:17.525Z,57.6
2018-06-20T09:44:08.167Z,57.7
2018-06-20T09:45:47.757Z,57.8
2018-06-20T09:46:37.268Z,57.9
2018-06-20T09:47:28.214Z,57.9
2018-06-20T09:48:18.468Z,58.1
2018-06-20T09:49:08.541Z,58.2
2018-06-20T09:49:58.610Z,58.3
2018-06-20T09:50:48.428Z,58.3
2018-06-20T09:51:38.475Z,58.4
2018-06-20T09:52:28.785Z,58.4
2018-06-20T09:53:18.876Z,58.3
2018-06-20T09:54:08.665Z,58.1
2018-06-20T09:54:58.779Z,57.8
2018-06-20T09:55:49.084Z,57.6
2018-06-20T09:56:39.011Z,57.4
2018-06-20T09:57:28.948Z,57.3
2018-06-20T09:58:18.004Z,57.3
2018-06-20T09:59:08.883Z,57.2
2018-06-20T09:59:59.166Z,57.1
2018-06-20T10:00:48.461Z,57.2
2018-06-20T10:01:40.493Z,57.4
2018-06-20T10:02:29.643Z,57.7
2018-06-20T10:03:19.412Z,57.8
2018-06-20T10:04:09.229Z,57.8
2018-06-20T10:04:59.552Z,58
2018-06-20T10:05:49.900Z,58.1
2018-06-20T10:06:39.511Z,58
2018-06-20T10:07:29.739Z,57.9
2018-06-20T10:08:19.880Z,58.1
2018-06-20T10:09:10.170Z,58.3
2018-06-20T10:09:59.931Z,58.5
2018-06-20T10:11:39.806Z,58.4
2018-06-20T10:12:30.111Z,58.4
2018-06-20T10:13:20.868Z,58.5
2018-06-20T10:14:09.975Z,58.6
2018-06-20T10:14:59.739Z,58.8
2018-06-20T10:15:50.099Z,58.9
2018-06-20T10:16:40.803Z,59.1
2018-06-20T10:17:30.331Z,59.1
2018-06-20T10:18:19.997Z,59.3
2018-06-20T10:19:10.929Z,59.3
2018-06-20T10:20:00.172Z,59.4
2018-06-20T10:20:50.804Z,59.4
2018-06-20T10:21:40.652Z,59.3
2018-06-20T10:22:30.339Z,59.2
2018-06-20T10:23:20.140Z,59.3
2018-06-20T10:24:11.019Z,59.3
2018-06-20T10:25:01.056Z,59.5
2018-06-20T10:25:50.600Z,59.6
2018-06-20T10:26:40.661Z,59.7
2018-06-20T10:27:30.720Z,59.8
2018-06-20T10:28:21.326Z,59.8
2018-06-20T10:29:11.762Z,59.9
2018-06-20T10:30:01.066Z,59.9
2018-06-20T10:30:51.297Z,60.1
2018-06-20T10:31:41.626Z,60.1
2018-06-20T10:32:31.989Z,60.2
2018-06-20T10:33:21.808Z,60.3
2018-06-20T10:34:12.531Z,60.3
2018-06-20T10:35:01.935Z,60.3
2018-06-20T10:35:51.935Z,60.3
2018-06-20T10:36:41.698Z,60.3
2018-06-20T10:37:31.803Z,60.3
2018-06-20T10:38:22.447Z,60.2
2018-06-20T10:39:12.185Z,60.3
2018-06-20T10:40:02.445Z,60.3
2018-06-20T10:40:52.025Z,60.5
2018-06-20T10:41:42.394Z,60.5
2018-06-20T10:42:32.469Z,60.6
2018-06-20T10:43:22.526Z,60.6
2018-06-20T10:44:11.992Z,60.8
2018-06-20T10:45:02.693Z,60.8
2018-06-20T10:45:52.125Z,60.8
2018-06-20T10:46:42.747Z,60.8
2018-06-20T10:47:33.135Z,60.9
2018-06-20T10:48:22.321Z,60.9
2018-06-20T10:49:12.697Z,61
2018-06-20T10:50:03.037Z,61.1
2018-06-20T10:50:52.520Z,61.1
2018-06-20T10:51:43.552Z,61.1
2018-06-20T10:52:32.619Z,61.2
2018-06-20T10:53:22.722Z,61.3
2018-06-20T10:54:13.047Z,61.3
2018-06-20T10:55:02.642Z,61.2
2018-06-20T10:55:53.298Z,61.1
2018-06-20T10:56:43.809Z,61.1
2018-06-20T10:57:33.634Z,61.1
2018-06-20T10:58:23.482Z,61.2
2018-06-20T10:59:13.502Z,61.1
2018-06-20T11:00:03.520Z,60.9
2018-06-20T11:00:54.128Z,60.6
2018-06-20T11:01:43.379Z,60.6
2018-06-20T11:02:33.726Z,60.7
2018-06-20T11:03:24.138Z,60.9
2018-06-20T11:04:14.387Z,61.1
2018-06-20T11:05:04.216Z,61.3
2018-06-20T11:05:53.673Z,61.3
2018-06-20T11:06:44.657Z,61.3
2018-06-20T11:07:34.054Z,61.4
2018-06-20T11:08:24.490Z,61.4
2018-06-20T11:09:14.828Z,61.6
2018-06-20T11:10:04.548Z,61.7
2018-06-20T11:10:53.864Z,61.7